Time;durP1;ratioP1;P1;durP2;ratioP2;P2;SDS_P1;SDS_P2;PMS_P1;PMS_P2;Temp;Humidity;BMP_temperature;BMP_pressure;BME280_temperature;BME280_humidity;BME280_pressure;Samples;Min_cycle;Max_cycle;Signal;HPM_P1;HPM_P2
2023/09/02 00:00:55;;;;;;;8.50;3.40;;;;;;;18.05;100.00;98304.38;4109032;28;20675;-91
2023/09/02 00:02:58;;;;;;;5.97;3.03;;;;;;;18.04;100.00;98308.00;4124164;28;21217;-90
2023/09/02 00:05:01;;;;;;;5.13;3.67;;;;;;;18.02;100.00;98312.59;4113833;28;21008;-91
2023/09/02 00:07:04;;;;;;;3.47;2.93;;;;;;;18.00;100.00;98306.63;4120273;28;20634;-91
2023/09/02 00:09:07;;;;;;;9.17;3.43;;;;;;;17.97;100.00;98302.47;4123177;28;20641;-91
2023/09/02 00:11:10;;;;;;;5.80;3.10;;;;;;;17.98;100.00;98308.56;4105710;28;20645;-91
2023/09/02 00:13:14;;;;;;;4.70;3.30;;;;;;;17.95;100.00;98308.84;4121686;28;20686;-92
2023/09/02 00:15:18;;;;;;;5.63;3.27;;;;;;;17.92;100.00;98303.91;4121226;28;20620;-95
2023/09/02 00:17:21;;;;;;;4.73;3.50;;;;;;;17.92;100.00;98310.97;4121880;28;22232;-91
2023/09/02 00:19:24;;;;;;;6.97;3.73;;;;;;;17.90;100.00;98305.81;4108163;28;20633;-91
2023/09/02 00:21:28;;;;;;;5.23;3.87;;;;;;;17.89;100.00;98303.34;4107708;28;20635;-92
2023/09/02 00:23:31;;;;;;;6.00;3.13;;;;;;;17.86;100.00;98308.91;4120941;28;20636;-92
2023/09/02 00:25:37;;;;;;;4.70;3.50;;;;;;;17.85;100.00;98307.25;4117339;28;20636;-92
2023/09/02 00:27:40;;;;;;;8.10;3.70;;;;;;;17.79;100.00;98308.66;4119460;28;20647;-91
2023/09/02 00:29:45;;;;;;;6.93;3.90;;;;;;;17.76;100.00;98303.66;4116864;28;20630;-92
2023/09/02 00:31:48;;;;;;;6.60;3.40;;;;;;;17.74;100.00;98300.34;4134223;28;20648;-91
2023/09/02 00:33:51;;;;;;;4.33;3.70;;;;;;;17.74;100.00;98305.63;4120506;28;20659;-92
2023/09/02 00:35:55;;;;;;;7.13;3.40;;;;;;;17.71;100.00;98305.06;4123945;28;20635;-92
2023/09/02 00:37:58;;;;;;;7.70;3.43;;;;;;;17.69;100.00;98302.56;4127360;28;20762;-92
2023/09/02 00:40:01;;;;;;;6.13;3.47;;;;;;;17.68;100.00;98306.19;4129960;28;20640;-92
2023/09/02 00:42:06;;;;;;;7.93;3.37;;;;;;;17.66;100.00;98305.47;4110617;28;20714;-91
2023/09/02 00:44:09;;;;;;;5.20;3.40;;;;;;;17.63;100.00;98316.31;4110136;28;20631;-93
2023/09/02 00:46:13;;;;;;;5.50;3.83;;;;;;;17.61;100.00;98312.19;4108539;28;20729;-92
2023/09/02 00:48:16;;;;;;;6.10;3.40;;;;;;;17.60;100.00;98316.59;4108608;28;20750;-92
2023/09/02 00:50:20;;;;;;;5.20;3.20;;;;;;;17.58;100.00;98313.28;4107696;28;20635;-92
2023/09/02 00:52:23;;;;;;;6.00;3.10;;;;;;;17.56;100.00;98311.75;4124389;28;20637;-92
2023/09/02 00:54:26;;;;;;;5.20;3.13;;;;;;;17.54;100.00;98319.81;4105121;28;20656;-92
2023/09/02 00:56:30;;;;;;;4.80;3.03;;;;;;;17.49;100.00;98310.69;4107498;28;20683;-91
2023/09/02 00:58:33;;;;;;;6.57;3.73;;;;;;;17.52;100.00;98310.38;4124933;28;20643;-91
2023/09/02 01:00:37;;;;;;;6.60;3.00;;;;;;;17.54;100.00;98318.97;4121809;28;21223;-92
2023/09/02 01:02:42;;;;;;;6.10;3.10;;;;;;;17.52;100.00;98311.22;4124434;28;20667;-92
2023/09/02 01:04:45;;;;;;;3.63;2.70;;;;;;;17.51;100.00;98309.56;4111038;28;20708;-92
2023/09/02 01:06:49;;;;;;;3.90;2.83;;;;;;;17.50;100.00;98315.81;4121877;28;20648;-92
2023/09/02 01:08:52;;;;;;;6.43;3.83;;;;;;;17.47;100.00;98317.91;4117655;28;20642;-91
2023/09/02 01:10:54;;;;;;;4.10;3.40;;;;;;;17.45;100.00;98314.56;4119348;28;20735;-92
2023/09/02 01:12:57;;;;;;;6.00;3.30;;;;;;;17.42;100.00;98321.94;4124645;28;20658;-91
2023/09/02 01:15:00;;;;;;;4.50;3.10;;;;;;;17.40;100.00;98311.53;4121295;28;21056;-92
2023/09/02 01:17:04;;;;;;;4.77;3.27;;;;;;;17.38;100.00;98308.19;4110845;28;20696;-93
2023/09/02 01:19:10;;;;;;;5.03;2.93;;;;;;;17.35;100.00;98315.53;4113223;28;20664;-92
2023/09/02 01:21:32;;;;;;;4.20;3.00;;;;;;;17.30;100.00;98312.50;4110810;28;20635;-92
2023/09/02 01:23:57;;;;;;;3.43;2.83;;;;;;;17.22;100.00;98307.09;4128324;28;20626;-92
2023/09/02 01:26:14;;;;;;;3.00;2.70;;;;;;;17.18;100.00;98308.31;4128068;28;20689;-92
2023/09/02 01:28:22;;;;;;;3.50;2.90;;;;;;;17.13;100.00;98319.28;4124402;28;20734;-93
2023/09/02 01:30:28;;;;;;;3.27;2.30;;;;;;;17.12;100.00;98314.16;4111009;28;20622;-92
2023/09/02 01:32:34;;;;;;;3.50;2.90;;;;;;;17.11;100.00;98315.97;4123507;28;20653;-92
2023/09/02 01:34:37;;;;;;;4.17;2.63;;;;;;;17.10;100.00;98314.28;4134228;28;20634;-92
2023/09/02 01:36:41;;;;;;;5.73;3.10;;;;;;;17.10;100.00;98316.09;4105266;28;21211;-92
2023/09/02 01:38:44;;;;;;;5.67;2.87;;;;;;;17.09;100.00;98312.63;4125305;28;20638;-92
2023/09/02 01:40:50;;;;;;;7.40;3.50;;;;;;;17.10;100.00;98316.91;4113148;28;20642;-91
2023/09/02 01:42:55;;;;;;;3.50;2.80;;;;;;;17.12;100.00;98319.41;4120406;28;20692;-92
2023/09/02 01:45:00;;;;;;;4.53;2.97;;;;;;;17.11;100.00;98315.97;4134853;28;21000;-91
2023/09/02 01:47:02;;;;;;;4.90;2.83;;;;;;;17.10;100.00;98316.09;4119194;28;20643;-92
2023/09/02 01:49:06;;;;;;;6.17;3.03;;;;;;;17.09;100.00;98320.53;4109506;28;21192;-92
2023/09/02 01:51:09;;;;;;;4.63;2.77;;;;;;;17.07;100.00;98325.09;4113794;28;20678;-92
2023/09/02 01:53:13;;;;;;;4.97;3.30;;;;;;;17.09;100.00;98322.34;4110806;28;20659;-91
2023/09/02 01:55:17;;;;;;;12.63;3.50;;;;;;;17.09;100.00;98324.97;4109487;28;21222;-91
2023/09/02 01:57:21;;;;;;;4.10;2.80;;;;;;;17.07;100.00;98326.91;4103594;28;20743;-92
2023/09/02 01:59:24;;;;;;;5.60;2.90;;;;;;;17.08;100.00;98331.22;4103625;28;20637;-92
2023/09/02 02:01:29;;;;;;;5.50;2.60;;;;;;;17.07;100.00;98326.91;4111064;28;20636;-93
2023/09/02 02:03:37;;;;;;;5.37;3.10;;;;;;;17.07;100.00;98325.09;4118816;28;20662;-93
2023/09/02 02:05:43;;;;;;;5.50;2.70;;;;;;;17.06;100.00;98325.25;4125082;28;20642;-91
2023/09/02 02:07:48;;;;;;;4.30;3.30;;;;;;;17.05;100.00;98331.50;4126005;28;21065;-92
2023/09/02 02:09:54;;;;;;;3.93;2.20;;;;;;;17.03;100.00;98334.28;4116648;28;20647;-93
2023/09/02 02:11:57;;;;;;;5.00;2.27;;;;;;;17.01;100.00;98332.75;4102363;28;20811;-92
2023/09/02 02:14:02;;;;;;;4.90;2.70;;;;;;;16.98;100.00;98332.19;4139206;28;21280;-92
2023/09/02 02:16:06;;;;;;;4.20;2.30;;;;;;;16.97;100.00;98333.97;4126309;28;20677;-92
2023/09/02 02:18:11;;;;;;;3.43;2.97;;;;;;;16.96;100.00;98324.44;4108722;28;20658;-93
2023/09/02 02:20:14;;;;;;;5.03;2.20;;;;;;;16.97;100.00;98339.25;4109467;28;21012;-93
2023/09/02 02:22:18;;;;;;;5.17;2.77;;;;;;;16.97;100.00;98338.44;4125610;28;20633;-92
2023/09/02 02:24:21;;;;;;;6.00;3.10;;;;;;;16.96;100.00;98337.59;4122977;28;20638;-92
2023/09/02 02:26:24;;;;;;;4.60;2.70;;;;;;;16.94;100.00;98334.25;4104522;28;21252;-92
2023/09/02 02:28:27;;;;;;;2.70;2.30;;;;;;;16.94;100.00;98336.06;4125339;28;20737;-92
2023/09/02 02:30:30;;;;;;;6.17;2.50;;;;;;;16.91;100.00;98334.53;4124066;28;20655;-92
2023/09/02 02:32:34;;;;;;;5.60;2.40;;;;;;;16.87;100.00;98325.25;4119414;28;20635;-92
2023/09/02 02:34:39;;;;;;;4.47;2.70;;;;;;;16.85;100.00;98328.97;4117470;28;20638;-90
2023/09/02 02:36:41;;;;;;;6.20;2.47;;;;;;;16.83;100.00;98337.03;4139190;28;21227;-92
2023/09/02 02:38:44;;;;;;;3.27;2.60;;;;;;;16.84;100.00;98335.22;4109705;28;20659;-91
2023/09/02 02:40:46;;;;;;;3.20;2.60;;;;;;;16.85;100.00;98342.16;4114832;28;20631;-93
2023/09/02 02:42:50;;;;;;;3.57;2.17;;;;;;;16.83;100.00;98334.38;4122257;28;20646;-92
2023/09/02 02:44:53;;;;;;;3.20;2.67;;;;;;;16.83;100.00;98337.03;4121062;28;21003;-91
2023/09/02 02:46:55;;;;;;;4.00;3.00;;;;;;;16.87;100.00;98338.44;4124083;28;21200;-92
2023/09/02 02:48:58;;;;;;;5.10;2.40;;;;;;;16.88;100.00;98334.81;4108823;28;21536;-92
2023/09/02 02:51:03;;;;;;;4.90;2.90;;;;;;;16.86;100.00;98336.75;4109512;28;20735;-92
2023/09/02 02:53:07;;;;;;;3.67;2.97;;;;;;;16.81;100.00;98333.69;4106571;28;20678;-92
2023/09/02 02:55:11;;;;;;;5.67;2.67;;;;;;;16.78;100.00;98344.50;4107888;28;20648;-92
2023/09/02 02:57:15;;;;;;;8.83;2.47;;;;;;;16.77;100.00;98334.09;4106611;28;20687;-92
2023/09/02 02:59:18;;;;;;;5.13;2.80;;;;;;;16.75;100.00;98341.31;4107779;28;20726;-93
2023/09/02 03:01:23;;;;;;;3.57;2.60;;;;;;;16.76;100.00;98330.63;4110782;28;20678;-91
2023/09/02 03:03:26;;;;;;;4.77;2.60;;;;;;;16.77;100.00;98332.31;4123907;28;20700;-91
2023/09/02 03:05:30;;;;;;;3.70;2.80;;;;;;;16.77;100.00;98336.75;4120857;28;20664;-93
2023/09/02 03:07:35;;;;;;;6.10;2.80;;;;;;;16.76;100.00;98330.63;4109216;28;20651;-93
2023/09/02 03:09:38;;;;;;;3.60;2.50;;;;;;;16.76;100.00;98341.16;4124613;28;20637;-92
2023/09/02 03:11:41;;;;;;;3.90;2.83;;;;;;;16.75;100.00;98336.06;4105579;28;20646;-91
2023/09/02 03:13:44;;;;;;;3.83;2.30;;;;;;;16.72;100.00;98346.88;4128337;28;20641;-91
2023/09/02 03:15:54;;;;;;;3.70;2.93;;;;;;;16.71;100.00;98351.28;4116535;28;21543;-91
2023/09/02 03:17:57;;;;;;;3.30;2.80;;;;;;;16.69;100.00;98355.03;4119958;28;21014;-93
2023/09/02 03:20:03;;;;;;;8.03;3.23;;;;;;;16.67;100.00;98352.53;4110030;28;20647;-91
2023/09/02 03:22:08;;;;;;;4.97;3.33;;;;;;;16.61;100.00;98347.81;4109867;28;20651;-92
2023/09/02 03:24:14;;;;;;;10.60;3.37;;;;;;;16.64;100.00;98352.81;4110271;28;20749;-91
2023/09/02 03:26:17;;;;;;;3.77;2.60;;;;;;;16.63;100.00;98348.50;4129706;28;20642;-92
2023/09/02 03:28:23;;;;;;;5.20;3.00;;;;;;;16.61;100.00;98347.81;4111685;28;20667;-92
2023/09/02 03:30:26;;;;;;;8.87;3.07;;;;;;;16.62;100.00;98353.91;4108618;28;20671;-91
2023/09/02 03:32:30;;;;;;;3.40;2.57;;;;;;;16.59;100.00;98348.91;4121968;28;20650;-92
2023/09/02 03:34:33;;;;;;;8.03;3.07;;;;;;;16.59;100.00;98354.19;4109868;28;20762;-93
2023/09/02 03:36:36;;;;;;;3.30;2.43;;;;;;;16.62;100.00;98357.34;4109470;28;20637;-92
2023/09/02 03:38:39;;;;;;;7.53;2.60;;;;;;;16.60;100.00;98359.31;4124816;28;20752;-92
2023/09/02 03:40:43;;;;;;;4.30;3.07;;;;;;;16.58;100.00;98353.34;4107173;28;20742;-92
2023/09/02 03:42:46;;;;;;;5.17;2.63;;;;;;;16.56;100.00;98350.00;4108648;28;20711;-91
2023/09/02 03:44:50;;;;;;;5.00;2.93;;;;;;;16.54;100.00;98362.47;4122930;28;21026;-91
2023/09/02 03:46:53;;;;;;;3.70;2.57;;;;;;;16.50;100.00;98347.91;4103686;28;20644;-90
2023/09/02 03:48:57;;;;;;;2.73;2.27;;;;;;;16.49;100.00;98352.47;4124554;28;21105;-91
2023/09/02 03:51:03;;;;;;;3.40;2.37;;;;;;;16.47;100.00;98349.16;4123770;28;20770;-92
2023/09/02 03:53:08;;;;;;;3.27;2.70;;;;;;;16.45;100.00;98338.75;4105135;28;20670;-92
2023/09/02 03:55:12;;;;;;;5.73;2.63;;;;;;;16.38;100.00;98349.97;4106029;28;20674;-91
2023/09/02 03:57:17;;;;;;;4.33;2.00;;;;;;;16.32;100.00;98343.41;4109573;28;21077;-91
2023/09/02 03:59:20;;;;;;;3.50;2.70;;;;;;;16.28;100.00;98355.19;4108690;28;20721;-92
2023/09/02 04:01:23;;;;;;;4.73;2.37;;;;;;;16.24;100.00;98352.97;4119145;28;20652;-91
2023/09/02 04:03:28;;;;;;;5.40;3.20;;;;;;;16.22;100.00;98350.47;4109100;28;20682;-92
2023/09/02 04:05:31;;;;;;;3.90;2.70;;;;;;;16.22;100.00;98357.50;4108279;28;21297;-88
2023/09/02 04:07:34;;;;;;;8.90;3.07;;;;;;;16.21;100.00;98363.72;4108080;28;20644;-88
2023/09/02 04:09:37;;;;;;;6.20;2.67;;;;;;;16.22;100.00;98362.78;4111312;28;20633;-88
2023/09/02 04:11:40;;;;;;;4.70;2.97;;;;;;;16.22;100.00;98363.63;4128227;28;20695;-88
2023/09/02 04:13:46;;;;;;;4.93;2.80;;;;;;;16.23;100.00;98369.72;4117747;28;20681;-88
2023/09/02 04:15:49;;;;;;;5.57;2.80;;;;;;;16.25;100.00;98373.91;4120005;28;20639;-88
2023/09/02 04:17:54;;;;;;;3.43;2.53;;;;;;;16.27;100.00;98371.97;4118224;28;21490;-88
2023/09/02 04:20:00;;;;;;;3.90;2.60;;;;;;;16.26;100.00;98378.19;4118366;28;20658;-88
2023/09/02 04:22:04;;;;;;;3.37;2.60;;;;;;;16.26;100.00;98378.19;4124751;28;21021;-88
2023/09/02 04:24:09;;;;;;;6.27;3.00;;;;;;;16.26;100.00;98378.19;4123557;28;20637;-88
2023/09/02 04:26:11;;;;;;;4.97;2.80;;;;;;;16.28;100.00;98381.53;4114666;28;21208;-88
2023/09/02 04:28:14;;;;;;;4.07;2.60;;;;;;;16.25;100.00;98384.44;4122145;28;20673;-88
2023/09/02 04:30:19;;;;;;;5.30;2.80;;;;;;;16.24;100.00;98384.56;4115729;28;20769;-88
2023/09/02 04:32:22;;;;;;;4.60;2.67;;;;;;;16.21;100.00;98382.97;4119616;28;20734;-88
2023/09/02 04:34:26;;;;;;;4.53;2.80;;;;;;;16.23;100.00;98382.88;4120523;28;20625;-88
2023/09/02 04:36:30;;;;;;;8.43;3.07;;;;;;;16.19;100.00;98384.91;4124241;28;20641;-88
2023/09/02 04:38:34;;;;;;;4.43;2.47;;;;;;;16.18;100.00;98382.41;4120778;28;21214;-88
2023/09/02 04:40:38;;;;;;;3.27;2.47;;;;;;;16.19;100.00;98391.97;4120462;28;20714;-88
2023/09/02 04:42:41;;;;;;;3.83;2.17;;;;;;;16.16;100.00;98387.81;4119581;28;20638;-88
2023/09/02 04:44:44;;;;;;;4.43;2.33;;;;;;;16.17;100.00;98393.91;4119948;28;20642;-88
2023/09/02 04:46:49;;;;;;;6.03;2.50;;;;;;;16.16;100.00;98393.06;4119893;28;20634;-88
2023/09/02 04:48:53;;;;;;;6.93;2.63;;;;;;;16.16;100.00;98387.81;4113116;28;21198;-88
2023/09/02 04:50:58;;;;;;;12.63;2.50;;;;;;;16.15;100.00;98395.84;4124675;28;20644;-88
2023/09/02 04:53:03;;;;;;;11.83;2.63;;;;;;;16.12;100.00;98393.47;4121951;28;20740;-88
2023/09/02 04:55:10;;;;;;;6.23;2.47;;;;;;;16.11;100.00;98383.91;4122367;28;20676;-88
2023/09/02 04:57:13;;;;;;;7.73;2.63;;;;;;;16.12;100.00;98380.31;4120078;28;20643;-88
2023/09/02 04:59:17;;;;;;;5.30;2.73;;;;;;;16.12;100.00;98396.09;4116398;28;20665;-88
2023/09/02 05:01:22;;;;;;;5.77;2.63;;;;;;;16.12;100.00;98396.09;4118289;28;20703;-88
2023/09/02 05:03:31;;;;;;;6.50;2.60;;;;;;;16.15;100.00;98395.84;4117246;28;20652;-88
2023/09/02 05:05:35;;;;;;;3.80;2.03;;;;;;;16.14;100.00;98395.00;4121513;28;20845;-88
2023/09/02 05:07:41;;;;;;;16.17;2.90;;;;;;;16.12;100.00;98396.09;4134611;28;20687;-88
2023/09/02 05:09:47;;;;;;;13.57;2.80;;;;;;;16.14;100.00;98402.88;4118172;28;20644;-88
2023/09/02 05:11:50;;;;;;;16.30;2.53;;;;;;;16.15;100.00;98401.94;4120370;28;20673;-88
2023/09/02 05:13:53;;;;;;;7.83;2.37;;;;;;;16.16;100.00;98400.97;4107099;28;21216;-88
2023/09/02 05:15:57;;;;;;;6.20;2.63;;;;;;;16.19;100.00;98410.38;4103375;28;20628;-88
2023/09/02 05:18:00;;;;;;;6.90;2.30;;;;;;;16.23;100.00;98410.03;4114073;28;21263;-88
2023/09/02 05:20:08;;;;;;;6.80;2.40;;;;;;;16.24;100.00;98410.88;4119417;28;20733;-88
2023/09/02 05:22:11;;;;;;;10.97;1.83;;;;;;;16.28;100.00;98410.50;4111239;28;20635;-88
2023/09/02 05:24:14;;;;;;;15.33;2.27;;;;;;;16.35;100.00;98410.78;4122480;28;20701;-88
2023/09/02 05:26:17;;;;;;;12.97;2.03;;;;;;;16.42;100.00;98422.44;4124248;28;20639;-88
2023/09/02 05:28:21;;;;;;;9.07;2.20;;;;;;;16.47;100.00;98423.72;4109579;28;20638;-88
2023/09/02 05:30:28;;;;;;;9.50;2.70;;;;;;;16.55;100.00;98416.84;4110144;28;20643;-88
2023/09/02 05:32:31;;;;;;;9.80;2.63;;;;;;;16.65;100.00;98422.13;4123806;28;20740;-88
2023/09/02 05:34:34;;;;;;;18.30;5.13;;;;;;;16.75;100.00;98418.56;4105556;28;20648;-88
2023/09/02 05:36:39;;;;;;;6.37;3.13;;;;;;;16.88;100.00;98419.13;4132919;28;20637;-88
2023/09/02 05:38:43;;;;;;;8.57;3.20;;;;;;;17.02;100.00;98413.50;4121974;28;20669;-88
2023/09/02 05:40:46;;;;;;;10.20;2.90;;;;;;;17.08;100.00;98408.50;4118990;28;20679;-88
2023/09/02 05:42:48;;;;;;;6.53;2.50;;;;;;;17.19;100.00;98418.91;4119443;28;20753;-88
2023/09/02 05:44:51;;;;;;;4.00;2.20;;;;;;;17.34;100.00;98416.75;4118337;28;20681;-88
2023/09/02 05:46:54;;;;;;;3.70;2.40;;;;;;;17.54;100.00;98414.78;4114043;28;20670;-88
2023/09/02 05:48:57;;;;;;;10.43;2.87;;;;;;;17.77;100.00;98424.09;4107125;28;20740;-88
2023/09/02 05:50:59;;;;;;;3.90;2.50;;;;;;;18.01;100.00;98433.22;4108738;28;20647;-88
2023/09/02 05:53:04;;;;;;;4.47;2.60;;;;;;;18.29;100.00;98431.50;4135082;28;21246;-88
2023/09/02 05:55:08;;;;;;;3.00;2.37;;;;;;;18.44;100.00;98433.53;4104449;28;20679;-88
2023/09/02 05:57:11;;;;;;;3.40;2.20;;;;;;;18.57;100.00;98431.41;4126523;28;21108;-88
2023/09/02 05:59:13;;;;;;;3.10;2.80;;;;;;;18.65;99.26;98428.84;4109979;28;20730;-88
2023/09/02 06:01:16;;;;;;;2.60;1.80;;;;;;;18.81;99.20;98444.91;4106789;28;20632;-88
2023/09/02 06:03:20;;;;;;;2.97;2.30;;;;;;;18.93;99.70;98442.75;4116559;28;20655;-88
2023/09/02 06:05:23;;;;;;;2.70;1.97;;;;;;;18.97;98.38;98432.72;4118054;28;20678;-88
2023/09/02 06:07:27;;;;;;;2.57;2.13;;;;;;;18.93;98.34;98434.81;4137100;28;20734;-88
2023/09/02 06:09:31;;;;;;;2.50;2.20;;;;;;;19.00;99.26;98438.56;4119336;28;20641;-88
2023/09/02 06:11:33;;;;;;;3.13;1.90;;;;;;;19.16;98.20;98443.22;4124005;28;20651;-88
2023/09/02 06:13:37;;;;;;;2.83;2.23;;;;;;;19.32;98.20;98440.72;4121383;28;20646;-88
2023/09/02 06:15:40;;;;;;;2.40;2.20;;;;;;;19.37;96.28;98433.19;4122366;28;20648;-88
2023/09/02 06:17:43;;;;;;;6.80;2.43;;;;;;;19.39;96.04;98430.25;4117808;28;21213;-89
2023/09/02 06:19:47;;;;;;;2.93;2.20;;;;;;;19.43;95.13;98431.59;4106634;28;21232;-88
2023/09/02 06:21:50;;;;;;;2.93;2.10;;;;;;;19.46;96.12;98431.28;4109406;28;20641;-88
2023/09/02 06:23:53;;;;;;;2.80;2.20;;;;;;;19.49;96.44;98431.00;4125133;28;20667;-89
2023/09/02 06:25:57;;;;;;;3.30;2.30;;;;;;;19.61;96.76;98440.38;4111818;28;21259;-92
2023/09/02 06:28:00;;;;;;;3.80;2.73;;;;;;;19.74;97.19;98446.13;4102628;28;21028;-91
2023/09/02 06:30:03;;;;;;;2.23;1.90;;;;;;;19.87;97.63;98446.56;4127058;28;20728;-91
2023/09/02 06:32:07;;;;;;;3.07;2.17;;;;;;;19.95;96.71;98446.63;4132579;28;20624;-92
2023/09/02 06:34:10;;;;;;;3.13;2.30;;;;;;;20.17;97.39;98448.81;4132781;28;20737;-92
2023/09/02 06:36:14;;;;;;;4.63;2.53;;;;;;;20.36;95.92;98454.72;4131778;28;20760;-92
2023/09/02 06:38:18;;;;;;;3.53;2.20;;;;;;;20.55;96.59;98459.81;4109918;28;21303;-92
2023/09/02 06:40:21;;;;;;;2.87;2.23;;;;;;;20.69;94.92;98453.94;4116752;28;21256;-92
2023/09/02 06:42:25;;;;;;;3.20;2.20;;;;;;;20.80;94.03;98457.16;4120367;28;21331;-92
2023/09/02 06:44:28;;;;;;;4.03;2.30;;;;;;;20.87;92.73;98450.25;4120723;28;20743;-91
2023/09/02 06:46:33;;;;;;;2.63;2.00;;;;;;;21.00;93.74;98445.28;4118725;28;20643;-91
2023/09/02 06:48:35;;;;;;;4.00;2.40;;;;;;;21.15;93.46;98449.81;4124607;28;21184;-92
2023/09/02 06:50:38;;;;;;;4.00;2.50;;;;;;;21.24;92.33;98450.69;4108674;28;20657;-91
2023/09/02 06:52:41;;;;;;;2.83;2.27;;;;;;;21.36;91.64;98460.84;4110120;28;20639;-92
2023/09/02 06:54:48;;;;;;;4.53;2.50;;;;;;;21.49;91.89;98458.59;4104773;28;20630;-91
2023/09/02 06:56:51;;;;;;;2.87;2.17;;;;;;;21.60;91.67;98467.06;4120093;28;20679;-91
2023/09/02 06:58:55;;;;;;;4.63;2.37;;;;;;;21.69;91.59;98463.41;4121467;28;21447;-91
2023/09/02 07:00:58;;;;;;;2.33;1.93;;;;;;;21.78;90.97;98465.94;4101498;28;20652;-91
2023/09/02 07:03:01;;;;;;;3.27;2.00;;;;;;;21.89;92.02;98467.41;4130839;28;20642;-92
2023/09/02 07:05:04;;;;;;;3.03;2.10;;;;;;;22.03;91.57;98472.91;4115195;28;20662;-91
2023/09/02 07:07:08;;;;;;;3.60;2.30;;;;;;;22.15;91.21;98478.72;4109849;28;20634;-92
2023/09/02 07:09:11;;;;;;;2.30;1.83;;;;;;;22.33;90.53;98485.56;4124649;28;21073;-92
2023/09/02 07:11:14;;;;;;;2.70;1.60;;;;;;;22.44;91.13;98488.69;4120418;28;20744;-93
2023/09/02 07:13:18;;;;;;;4.53;2.17;;;;;;;22.60;90.68;98477.22;4122403;28;21257;-92
2023/09/02 07:15:22;;;;;;;3.90;1.63;;;;;;;22.82;91.68;98485.28;4122417;28;20643;-92
2023/09/02 07:17:28;;;;;;;3.10;2.10;;;;;;;23.02;90.14;98483.91;4121960;28;20660;-92
2023/09/02 07:19:31;;;;;;;2.50;1.90;;;;;;;23.12;88.56;98490.69;4114974;28;20644;-92
2023/09/02 07:21:35;;;;;;;3.07;2.53;;;;;;;23.20;87.72;98477.38;4103273;28;20648;-92
2023/09/02 07:23:38;;;;;;;3.83;1.80;;;;;;;23.38;90.30;98489.44;4111345;28;21212;-92
2023/09/02 07:25:41;;;;;;;2.80;2.10;;;;;;;23.53;88.68;98479.69;4119910;28;21210;-92
2023/09/02 07:27:44;;;;;;;3.70;1.73;;;;;;;23.59;86.20;98486.97;4117064;28;20637;-93
2023/09/02 07:29:48;;;;;;;3.03;1.97;;;;;;;23.63;86.87;98479.44;4104769;28;20790;-91
2023/09/02 07:31:53;;;;;;;1.90;1.50;;;;;;;23.80;86.99;98480.03;4121349;28;20631;-93
2023/09/02 07:33:56;;;;;;;3.93;2.07;;;;;;;24.03;87.10;98482.72;4116234;28;20757;-91
2023/09/02 07:36:00;;;;;;;2.50;2.00;;;;;;;24.15;87.71;98493.59;4119350;28;20643;-92
2023/09/02 07:38:04;;;;;;;4.10;2.30;;;;;;;24.25;86.00;98493.34;4123234;28;20661;-91
2023/09/02 07:40:08;;;;;;;3.50;2.70;;;;;;;24.16;85.24;98491.78;4118134;28;20746;-92
2023/09/02 07:42:11;;;;;;;3.93;2.20;;;;;;;24.16;85.25;98486.44;4117297;28;20657;-92
2023/09/02 07:44:14;;;;;;;2.80;1.80;;;;;;;24.25;87.38;98491.50;4122434;28;20641;-92
2023/09/02 07:46:17;;;;;;;4.17;2.60;;;;;;;24.32;85.21;98488.94;4105551;28;20637;-93
2023/09/02 07:48:22;;;;;;;2.50;2.00;;;;;;;24.48;85.22;98479.00;4100564;28;20665;-92
2023/09/02 07:50:25;;;;;;;3.30;2.40;;;;;;;24.68;84.74;98486.28;4105497;28;20650;-91
2023/09/02 07:52:29;;;;;;;2.73;1.83;;;;;;;24.72;84.01;98495.59;4123260;28;20646;-92
2023/09/02 07:54:34;;;;;;;4.50;1.93;;;;;;;24.86;84.24;98486.75;4116414;28;20678;-92
2023/09/02 07:56:37;;;;;;;2.03;1.67;;;;;;;25.07;86.22;98499.41;4115310;28;20653;-91
2023/09/02 07:58:42;;;;;;;3.70;1.93;;;;;;;25.13;84.28;98500.31;4114924;28;20625;-91
2023/09/02 08:00:44;;;;;;;3.13;1.83;;;;;;;25.21;82.90;98497.56;4117072;28;20754;-88
2023/09/02 08:02:47;;;;;;;2.40;1.83;;;;;;;25.26;84.12;98495.16;4118265;28;20708;-91
2023/09/02 08:04:52;;;;;;;2.30;1.70;;;;;;;25.35;81.80;98494.03;4108804;28;20705;-90
2023/09/02 08:06:55;;;;;;;4.43;1.77;;;;;;;25.36;80.88;98493.00;4112338;28;20714;-92
2023/09/02 08:08:58;;;;;;;2.33;1.77;;;;;;;25.47;81.65;98494.38;4123317;28;20646;-90
2023/09/02 08:11:01;;;;;;;2.83;1.93;;;;;;;25.61;81.67;98505.88;4118516;28;20689;-89
2023/09/02 08:13:04;;;;;;;3.27;2.00;;;;;;;25.61;81.28;98500.53;4119387;28;21201;-90
2023/09/02 08:15:08;;;;;;;2.60;1.80;;;;;;;25.57;81.29;98509.09;4117934;28;20668;-90
2023/09/02 08:17:12;;;;;;;3.00;1.87;;;;;;;25.62;82.90;98507.53;4119071;28;20748;-90
2023/09/02 08:19:14;;;;;;;2.13;1.70;;;;;;;25.67;81.58;98498.97;4103032;28;20678;-90
2023/09/02 08:21:19;;;;;;;3.00;2.10;;;;;;;25.58;80.23;98500.91;4102071;28;20701;-92
2023/09/02 08:23:22;;;;;;;2.50;2.07;;;;;;;25.56;81.03;98496.78;4125531;28;21127;-91
2023/09/02 08:25:24;;;;;;;3.03;2.03;;;;;;;25.60;81.56;98500.69;4123940;28;21283;-90
2023/09/02 08:27:28;;;;;;;2.67;1.80;;;;;;;25.71;83.10;98498.41;4116385;28;20750;-91
2023/09/02 08:29:31;;;;;;;2.80;1.80;;;;;;;25.82;82.29;98499.78;4113630;28;20673;-90
2023/09/02 08:31:33;;;;;;;3.20;1.80;;;;;;;25.88;81.04;98497.16;4117411;28;21209;-91
2023/09/02 08:33:36;;;;;;;4.53;1.97;;;;;;;25.93;82.75;98500.06;4123201;28;20657;-90
2023/09/02 08:35:39;;;;;;;2.70;2.10;;;;;;;25.92;82.92;98492.25;4101002;28;20685;-91
2023/09/02 08:37:44;;;;;;;2.80;2.00;;;;;;;25.85;80.49;98494.03;4110258;28;20633;-91
2023/09/02 08:39:48;;;;;;;3.50;2.53;;;;;;;25.83;82.34;98490.72;4130877;28;20645;-91
2023/09/02 08:41:51;;;;;;;3.20;2.30;;;;;;;25.92;84.43;98490.41;4114630;28;20650;-91
2023/09/02 08:43:55;;;;;;;2.17;1.67;;;;;;;25.94;84.14;98491.03;4117732;28;20698;-91
2023/09/02 08:46:01;;;;;;;3.30;1.77;;;;;;;25.93;82.35;98485.88;4116926;28;20643;-89
2023/09/02 08:48:07;;;;;;;2.80;1.67;;;;;;;25.98;81.75;98488.81;4100364;28;21177;-89
2023/09/02 08:50:11;;;;;;;2.30;1.90;;;;;;;25.97;80.90;98489.84;4115572;28;20786;-90
2023/09/02 08:52:14;;;;;;;2.97;1.60;;;;;;;26.08;81.18;98500.03;4124343;28;20728;-90
2023/09/02 08:54:19;;;;;;;3.00;2.00;;;;;;;26.25;81.92;98504.91;4126627;28;20643;-89
2023/09/02 08:56:24;;;;;;;1.97;1.40;;;;;;;26.30;79.92;98510.56;4116530;28;20646;-89
2023/09/02 08:58:28;;;;;;;4.53;1.60;;;;;;;26.40;77.42;98503.88;4123785;28;21078;-90
2023/09/02 09:00:32;;;;;;;2.60;2.10;;;;;;;26.57;80.20;98507.94;4124743;28;20663;-89
2023/09/02 09:02:36;;;;;;;3.20;1.40;;;;;;;26.74;77.47;98506.59;4115196;28;20712;-90
2023/09/02 09:04:40;;;;;;;1.97;1.50;;;;;;;26.85;77.96;98514.09;4111380;28;21271;-90
2023/09/02 09:06:43;;;;;;;5.70;1.90;;;;;;;26.91;76.86;98513.34;4106521;28;21204;-90
2023/09/02 09:08:47;;;;;;;2.77;1.77;;;;;;;26.98;77.69;98524.94;4121077;28;20670;-92
2023/09/02 09:10:52;;;;;;;2.70;1.90;;;;;;;26.96;75.46;98524.28;4107250;28;20632;-91
2023/09/02 09:12:56;;;;;;;2.60;1.80;;;;;;;26.97;76.64;98528.63;4110486;28;20632;-90
2023/09/02 09:14:59;;;;;;;2.80;1.60;;;;;;;26.89;75.94;98520.75;4126034;28;20649;-87
2023/09/02 09:17:03;;;;;;;3.07;1.80;;;;;;;26.94;77.82;98523.66;4115298;28;20668;-86
2023/09/02 09:19:05;;;;;;;2.93;2.00;;;;;;;27.06;79.24;98534.47;4121238;28;20635;-86
2023/09/02 09:21:12;;;;;;;2.60;1.80;;;;;;;27.09;76.47;98528.72;4118790;28;20747;-86
2023/09/02 09:23:15;;;;;;;6.23;1.70;;;;;;;27.15;77.48;98527.09;4110443;28;20698;-87
2023/09/02 09:25:20;;;;;;;2.13;1.73;;;;;;;27.25;78.22;98538.31;4121687;28;21615;-86
2023/09/02 09:27:25;;;;;;;2.80;1.83;;;;;;;27.30;76.97;98535.84;4122844;28;20708;-87
2023/09/02 09:29:39;;;;;;;2.90;1.83;;;;;;;27.30;75.84;98525.94;4125386;28;20630;-85
2023/09/02 09:31:42;;;;;;;4.27;1.90;;;;;;;27.33;78.47;98535.44;4120868;28;21055;-86
2023/09/02 09:33:50;;;;;;;2.33;1.53;;;;;;;27.36;77.82;98532.38;4123826;28;20671;-86
2023/09/02 09:35:57;;;;;;;2.93;1.93;;;;;;;27.39;78.95;98535.47;4118639;28;20673;-86
2023/09/02 09:38:00;;;;;;;3.75;1.88;;;;;;;27.40;79.19;98531.78;4119444;28;20756;-85
2023/09/02 09:40:04;;;;;;;2.77;1.80;;;;;;;27.39;76.19;98537.34;4114919;28;20296;-86